sensor_id;sensor_type;location;lat;lon;timestamp;pressure;altitude;pressure_sealevel;temperature;humidity
44481;BME280;30184;42.018;23.670;2023-08-21T00:00:47;91977.34;;;17.53;74.59
44481;BME280;30184;42.018;23.670;2023-08-21T00:03:17;91980.72;;;17.48;74.56
44481;BME280;30184;42.018;23.670;2023-08-21T00:05:46;91987.44;;;17.47;74.59
44481;BME280;30184;42.018;23.670;2023-08-21T00:08:15;91985.59;;;17.44;74.80
44481;BME280;30184;42.018;23.670;2023-08-21T00:10:46;91981.81;;;17.41;74.82
44481;BME280;30184;42.018;23.670;2023-08-21T00:13:15;91992.03;;;17.41;75.02
44481;BME280;30184;42.018;23.670;2023-08-21T00:15:44;91992.19;;;17.37;75.13
44481;BME280;30184;42.018;23.670;2023-08-21T00:18:13;91993.09;;;17.34;75.05
44481;BME280;30184;42.018;23.670;2023-08-21T00:20:42;91988.53;;;17.31;75.52
44481;BME280;30184;42.018;23.670;2023-08-21T00:23:11;91973.38;;;17.03;75.71
44481;BME280;30184;42.018;23.670;2023-08-21T00:25:42;91987.47;;;17.29;75.66
44481;BME280;30184;42.018;23.670;2023-08-21T00:28:13;91988.38;;;17.26;75.82
44481;BME280;30184;42.018;23.670;2023-08-21T00:30:42;91989.78;;;17.21;75.76
44481;BME280;30184;42.018;23.670;2023-08-21T00:33:12;91993.00;;;17.20;75.90
44481;BME280;30184;42.018;23.670;2023-08-21T00:35:41;91994.19;;;17.19;76.16
44481;BME280;30184;42.018;23.670;2023-08-21T00:38:11;91991.59;;;17.15;76.32
44481;BME280;30184;42.018;23.670;2023-08-21T00:40:42;91999.56;;;17.13;76.42
44481;BME280;30184;42.018;23.670;2023-08-21T00:43:13;92009.00;;;17.12;76.20
44481;BME280;30184;42.018;23.670;2023-08-21T00:45:44;92026.69;;;16.93;76.32
44481;BME280;30184;42.018;23.670;2023-08-21T00:48:14;91999.41;;;17.07;76.68
44481;BME280;30184;42.018;23.670;2023-08-21T00:50:44;91996.84;;;17.04;76.72
44481;BME280;30184;42.018;23.670;2023-08-21T00:53:14;91925.44;;;16.53;77.10
44481;BME280;30184;42.018;23.670;2023-08-21T00:55:44;91997.13;;;16.97;76.91
44481;BME280;30184;42.018;23.670;2023-08-21T00:58:17;91993.63;;;16.96;76.97
44481;BME280;30184;42.018;23.670;2023-08-21T01:00:48;91991.06;;;16.93;77.07
44481;BME280;30184;42.018;23.670;2023-08-21T01:03:19;91985.25;;;16.91;77.07
44481;BME280;30184;42.018;23.670;2023-08-21T01:05:50;91986.47;;;16.90;77.27
44481;BME280;30184;42.018;23.670;2023-08-21T01:08:28;91999.88;;;16.88;77.25
44481;BME280;30184;42.018;23.670;2023-08-21T01:11:09;91995.31;;;16.85;77.67
44481;BME280;30184;42.018;23.670;2023-08-21T01:13:55;91996.22;;;16.82;77.79
44481;BME280;30184;42.018;23.670;2023-08-21T01:16:29;91987.56;;;16.65;78.04
44481;BME280;30184;42.018;23.670;2023-08-21T01:18:58;91994.13;;;16.76;77.75
44481;BME280;30184;42.018;23.670;2023-08-21T01:21:28;91989.53;;;16.73;78.08
44481;BME280;30184;42.018;23.670;2023-08-21T01:23:59;91997.44;;;16.71;78.03
44481;BME280;30184;42.018;23.670;2023-08-21T01:26:29;91986.66;;;16.68;78.28
44481;BME280;30184;42.018;23.670;2023-08-21T01:28:58;91989.84;;;16.66;78.70
44481;BME280;30184;42.018;23.670;2023-08-21T01:31:31;91993.03;;;16.65;78.63
44481;BME280;30184;42.018;23.670;2023-08-21T01:34:06;91944.31;;;16.32;78.91
44481;BME280;30184;42.018;23.670;2023-08-21T01:36:38;91990.44;;;16.61;78.81
44481;BME280;30184;42.018;23.670;2023-08-21T01:39:09;91991.63;;;16.60;79.12
44481;BME280;30184;42.018;23.670;2023-08-21T01:41:39;91982.38;;;16.58;79.02
44481;BME280;30184;42.018;23.670;2023-08-21T01:44:08;91992.56;;;16.57;79.21
44481;BME280;30184;42.018;23.670;2023-08-21T01:46:37;91996.53;;;16.56;79.21
44481;BME280;30184;42.018;23.670;2023-08-21T01:49:06;91993.47;;;16.54;79.42
44481;BME280;30184;42.018;23.670;2023-08-21T01:51:36;91986.47;;;16.53;79.31
44481;BME280;30184;42.018;23.670;2023-08-21T01:54:05;91992.09;;;16.50;79.05
44481;BME280;30184;42.018;23.670;2023-08-21T01:56:35;91987.84;;;16.49;79.22
44481;BME280;30184;42.018;23.670;2023-08-21T01:59:05;91996.22;;;16.45;79.39
44481;BME280;30184;42.018;23.670;2023-08-21T02:01:34;91995.91;;;16.43;79.80
44481;BME280;30184;42.018;23.670;2023-08-21T02:04:04;91990.88;;;16.41;79.54
44481;BME280;30184;42.018;23.670;2023-08-21T02:06:33;91999.56;;;16.40;79.85
44481;BME280;30184;42.018;23.670;2023-08-21T02:09:02;91969.09;;;16.20;79.68
44481;BME280;30184;42.018;23.670;2023-08-21T02:11:32;91990.84;;;16.32;80.19
44481;BME280;30184;42.018;23.670;2023-08-21T02:14:03;92046.38;;;16.24;80.43
44481;BME280;30184;42.018;23.670;2023-08-21T02:16:32;91987.53;;;16.28;80.43
44481;BME280;30184;42.018;23.670;2023-08-21T02:19:01;91987.97;;;16.27;80.02
44481;BME280;30184;42.018;23.670;2023-08-21T02:21:31;92000.44;;;16.28;80.07
44481;BME280;30184;42.018;23.670;2023-08-21T02:24:01;91986.91;;;16.24;79.94
44481;BME280;30184;42.018;23.670;2023-08-21T02:26:30;91958.13;;;16.01;80.30
44481;BME280;30184;42.018;23.670;2023-08-21T02:28:59;91992.06;;;16.22;80.77
44481;BME280;30184;42.018;23.670;2023-08-21T02:31:30;91993.75;;;16.20;80.73
44481;BME280;30184;42.018;23.670;2023-08-21T02:33:59;91997.69;;;16.19;80.85
44481;BME280;30184;42.018;23.670;2023-08-21T02:36:28;91991.16;;;16.16;81.03
44481;BME280;30184;42.018;23.670;2023-08-21T02:38:59;91988.84;;;16.15;81.30
44481;BME280;30184;42.018;23.670;2023-08-21T02:41:28;91979.13;;;16.14;81.11
44481;BME280;30184;42.018;23.670;2023-08-21T02:43:57;91985.53;;;16.11;80.88
44481;BME280;30184;42.018;23.670;2023-08-21T02:46:26;91956.25;;;15.80;81.05
44481;BME280;30184;42.018;23.670;2023-08-21T02:48:57;91987.19;;;16.08;81.62
44481;BME280;30184;42.018;23.670;2023-08-21T02:51:26;91898.81;;;15.40;81.75
44481;BME280;30184;42.018;23.670;2023-08-21T02:53:55;91993.28;;;16.03;81.58
44481;BME280;30184;42.018;23.670;2023-08-21T02:56:25;91994.47;;;16.02;81.56
44481;BME280;30184;42.018;23.670;2023-08-21T02:58:55;91976.06;;;15.93;81.72
44481;BME280;30184;42.018;23.670;2023-08-21T03:01:25;91989.59;;;15.97;82.17
44481;BME280;30184;42.018;23.670;2023-08-21T03:03:54;91988.50;;;15.94;82.05
44481;BME280;30184;42.018;23.670;2023-08-21T03:06:25;91983.50;;;15.93;82.25
44481;BME280;30184;42.018;23.670;2023-08-21T03:08:54;91984.41;;;15.90;82.23
44481;BME280;30184;42.018;23.670;2023-08-21T03:11:25;91988.34;;;15.89;82.45
44481;BME280;30184;42.018;23.670;2023-08-21T03:13:54;91984.53;;;15.86;82.39
44481;BME280;30184;42.018;23.670;2023-08-21T03:16:23;91987.72;;;15.85;82.66
44481;BME280;30184;42.018;23.670;2023-08-21T03:18:57;91912.59;;;15.27;82.82
44481;BME280;30184;42.018;23.670;2023-08-21T03:21:30;91986.34;;;15.80;82.58
44481;BME280;30184;42.018;23.670;2023-08-21T03:24:01;91990.28;;;15.79;82.61
44481;BME280;30184;42.018;23.670;2023-08-21T03:26:31;92009.59;;;15.76;82.68
44481;BME280;30184;42.018;23.670;2023-08-21T03:29:01;91975.97;;;15.66;82.88
44481;BME280;30184;42.018;23.670;2023-08-21T03:31:31;91990.59;;;15.72;83.31
44481;BME280;30184;42.018;23.670;2023-08-21T03:34:02;91917.56;;;15.20;83.30
44481;BME280;30184;42.018;23.670;2023-08-21T03:36:33;91989.06;;;15.71;83.25
44481;BME280;30184;42.018;23.670;2023-08-21T03:39:05;91987.97;;;15.68;83.33
44481;BME280;30184;42.018;23.670;2023-08-21T03:41:39;91867.19;;;14.90;83.47
44481;BME280;30184;42.018;23.670;2023-08-21T03:44:08;91964.00;;;15.42;83.49
44481;BME280;30184;42.018;23.670;2023-08-21T03:46:38;91994.66;;;15.67;83.53
44481;BME280;30184;42.018;23.670;2023-08-21T03:49:07;91993.91;;;15.67;83.51
44481;BME280;30184;42.018;23.670;2023-08-21T03:51:38;91989.19;;;15.67;83.68
44481;BME280;30184;42.018;23.670;2023-08-21T03:54:09;91994.66;;;15.67;83.82
44481;BME280;30184;42.018;23.670;2023-08-21T03:56:39;91993.91;;;15.67;83.92
44481;BME280;30184;42.018;23.670;2023-08-21T03:59:08;91995.44;;;15.68;83.95
44481;BME280;30184;42.018;23.670;2023-08-21T04:01:38;92006.38;;;15.68;83.83
44481;BME280;30184;42.018;23.670;2023-08-21T04:04:07;92011.84;;;15.68;83.98
44481;BME280;30184;42.018;23.670;2023-08-21T04:06:38;92001.66;;;15.68;83.90
44481;BME280;30184;42.018;23.670;2023-08-21T04:09:07;92009.44;;;15.70;84.11
44481;BME280;30184;42.018;23.670;2023-08-21T04:11:36;92029.66;;;15.73;84.10
44481;BME280;30184;42.018;23.670;2023-08-21T04:14:06;92007.78;;;15.73;83.12
44481;BME280;30184;42.018;23.670;2023-08-21T04:16:35;92008.22;;;15.71;82.88
44481;BME280;30184;42.018;23.670;2023-08-21T04:19:05;92005.03;;;15.73;82.81
44481;BME280;30184;42.018;23.670;2023-08-21T04:21:34;92014.75;;;15.74;82.79
44481;BME280;30184;42.018;23.670;2023-08-21T04:24:05;92000.59;;;15.66;82.90
44481;BME280;30184;42.018;23.670;2023-08-21T04:26:34;92003.38;;;15.75;82.51
44481;BME280;30184;42.018;23.670;2023-08-21T04:29:04;92008.38;;;15.77;83.07
44481;BME280;30184;42.018;23.670;2023-08-21T04:31:33;92012.13;;;15.61;83.16
44481;BME280;30184;42.018;23.670;2023-08-21T04:34:02;92008.88;;;15.84;83.41
44481;BME280;30184;42.018;23.670;2023-08-21T04:36:33;92000.03;;;15.80;83.32
44481;BME280;30184;42.018;23.670;2023-08-21T04:39:02;91961.22;;;15.63;83.12
44481;BME280;30184;42.018;23.670;2023-08-21T04:41:33;92006.00;;;15.97;83.16
44481;BME280;30184;42.018;23.670;2023-08-21T04:44:02;92003.13;;;16.00;83.20
44481;BME280;30184;42.018;23.670;2023-08-21T04:46:31;92003.75;;;16.04;83.05
44481;BME280;30184;42.018;23.670;2023-08-21T04:49:00;92003.59;;;16.08;83.02
44481;BME280;30184;42.018;23.670;2023-08-21T04:51:30;91998.00;;;16.12;83.11
44481;BME280;30184;42.018;23.670;2023-08-21T04:54:01;92000.88;;;16.17;82.62
44481;BME280;30184;42.018;23.670;2023-08-21T04:56:32;91998.00;;;16.21;82.66
44481;BME280;30184;42.018;23.670;2023-08-21T04:59:02;92007.91;;;16.27;82.45
44481;BME280;30184;42.018;23.670;2023-08-21T05:01:32;92001.38;;;16.34;82.49
44481;BME280;30184;42.018;23.670;2023-08-21T05:04:02;92000.16;;;16.44;82.40
44481;BME280;30184;42.018;23.670;2023-08-21T05:06:31;91997.88;;;16.61;82.91
44481;BME280;30184;42.018;23.670;2023-08-21T05:09:01;91998.06;;;16.75;82.17
44481;BME280;30184;42.018;23.670;2023-08-21T05:11:30;92001.25;;;16.92;80.70
44481;BME280;30184;42.018;23.670;2023-08-21T05:14:01;91996.97;;;17.00;80.26
44481;BME280;30184;42.018;23.670;2023-08-21T05:16:30;91996.34;;;17.24;80.00
44481;BME280;30184;42.018;23.670;2023-08-21T05:19:00;91996.91;;;17.37;79.69
44481;BME280;30184;42.018;23.670;2023-08-21T05:21:29;91983.16;;;17.46;78.98
44481;BME280;30184;42.018;23.670;2023-08-21T05:23:58;91950.00;;;17.26;78.09
44481;BME280;30184;42.018;23.670;2023-08-21T05:26:28;91997.72;;;17.70;78.25
44481;BME280;30184;42.018;23.670;2023-08-21T05:28:57;92000.13;;;17.86;76.90
44481;BME280;30184;42.018;23.670;2023-08-21T05:31:28;92001.38;;;18.09;76.98
44481;BME280;30184;42.018;23.670;2023-08-21T05:33:57;91987.41;;;18.22;75.58
44481;BME280;30184;42.018;23.670;2023-08-21T05:36:27;91996.69;;;18.48;74.81
44481;BME280;30184;42.018;23.670;2023-08-21T05:38:57;92001.81;;;18.64;74.15
44481;BME280;30184;42.018;23.670;2023-08-21T05:41:29;91992.38;;;18.80;74.63
44481;BME280;30184;42.018;23.670;2023-08-21T05:43:58;91998.06;;;18.91;73.71
44481;BME280;30184;42.018;23.670;2023-08-21T05:46:29;91992.31;;;19.04;73.45
44481;BME280;30184;42.018;23.670;2023-08-21T05:48:58;91996.34;;;19.18;73.41
44481;BME280;30184;42.018;23.670;2023-08-21T05:51:27;91999.56;;;19.31;72.93
44481;BME280;30184;42.018;23.670;2023-08-21T05:53:57;91998.81;;;19.45;72.54
44481;BME280;30184;42.018;23.670;2023-08-21T05:56:26;91884.38;;;18.80;70.71
44481;BME280;30184;42.018;23.670;2023-08-21T05:58:56;91986.47;;;19.70;70.57
44481;BME280;30184;42.018;23.670;2023-08-21T06:01:25;91990.72;;;19.86;70.88
44481;BME280;30184;42.018;23.670;2023-08-21T06:03:57;91985.94;;;20.01;70.33
44481;BME280;30184;42.018;23.670;2023-08-21T06:06:48;91993.69;;;20.17;70.64
44481;BME280;30184;42.018;23.670;2023-08-21T06:09:18;91986.44;;;20.34;69.80
44481;BME280;30184;42.018;23.670;2023-08-21T06:11:47;91981.91;;;20.52;70.21
44481;BME280;30184;42.018;23.670;2023-08-21T06:14:16;91990.84;;;20.67;70.66
44481;BME280;30184;42.018;23.670;2023-08-21T06:16:46;92012.31;;;20.77;68.80
44481;BME280;30184;42.018;23.670;2023-08-21T06:19:16;91984.44;;;20.96;67.45
44481;BME280;30184;42.018;23.670;2023-08-21T06:21:46;91989.59;;;21.08;67.06
44481;BME280;30184;42.018;23.670;2023-08-21T06:24:15;91984.47;;;20.75;65.77
44481;BME280;30184;42.018;23.670;2023-08-21T06:26:44;91987.09;;;21.31;65.82
44481;BME280;30184;42.018;23.670;2023-08-21T06:29:16;91979.19;;;21.44;65.57
44481;BME280;30184;42.018;23.670;2023-08-21T06:31:48;91910.06;;;21.07;65.35
44481;BME280;30184;42.018;23.670;2023-08-21T06:34:19;91977.97;;;21.76;65.35
44481;BME280;30184;42.018;23.670;2023-08-21T06:36:48;91965.78;;;21.94;64.03
44481;BME280;30184;42.018;23.670;2023-08-21T06:39:17;91963.38;;;22.07;61.37
44481;BME280;30184;42.018;23.670;2023-08-21T06:41:47;91991.19;;;22.29;63.50
44481;BME280;30184;42.018;23.670;2023-08-21T06:44:20;91972.69;;;22.47;62.86
44481;BME280;30184;42.018;23.670;2023-08-21T06:46:49;91974.28;;;22.64;61.82
44481;BME280;30184;42.018;23.670;2023-08-21T06:49:21;91965.56;;;22.83;60.73
44481;BME280;30184;42.018;23.670;2023-08-21T06:51:51;91968.66;;;23.01;58.38
44481;BME280;30184;42.018;23.670;2023-08-21T06:54:20;91963.16;;;23.18;57.83
44481;BME280;30184;42.018;23.670;2023-08-21T06:56:49;91955.41;;;23.33;57.23
44481;BME280;30184;42.018;23.670;2023-08-21T06:59:19;91881.53;;;22.75;58.08
44481;BME280;30184;42.018;23.670;2023-08-21T07:01:48;91964.53;;;23.67;56.24
44481;BME280;30184;42.018;23.670;2023-08-21T07:04:18;91943.91;;;23.63;53.72
44481;BME280;30184;42.018;23.670;2023-08-21T07:06:48;91955.22;;;23.93;53.27
44481;BME280;30184;42.018;23.670;2023-08-21T07:09:18;91950.41;;;24.04;52.29
44481;BME280;30184;42.018;23.670;2023-08-21T07:11:47;91952.41;;;24.21;53.35
44481;BME280;30184;42.018;23.670;2023-08-21T07:14:16;91904.81;;;24.05;52.41
44481;BME280;30184;42.018;23.670;2023-08-21T07:16:46;91946.84;;;24.48;51.99
44481;BME280;30184;42.018;23.670;2023-08-21T07:19:16;91947.03;;;24.67;54.37
44481;BME280;30184;42.018;23.670;2023-08-21T07:21:46;91944.94;;;24.84;52.67
44481;BME280;30184;42.018;23.670;2023-08-21T07:24:16;91939.38;;;24.96;50.68
44481;BME280;30184;42.018;23.670;2023-08-21T07:26:45;91934.53;;;25.07;51.01
44481;BME280;30184;42.018;23.670;2023-08-21T07:29:15;91944.31;;;25.19;51.82
44481;BME280;30184;42.018;23.670;2023-08-21T07:31:44;91935.19;;;25.24;50.64
44481;BME280;30184;42.018;23.670;2023-08-21T07:34:13;91930.84;;;25.35;51.35
44481;BME280;30184;42.018;23.670;2023-08-21T07:36:42;91924.91;;;25.49;52.54
44481;BME280;30184;42.018;23.670;2023-08-21T07:39:12;91920.06;;;25.67;48.30
44481;BME280;30184;42.018;23.670;2023-08-21T07:41:42;91920.25;;;25.69;48.66
44481;BME280;30184;42.018;23.670;2023-08-21T07:44:11;91917.66;;;25.82;43.36
44481;BME280;30184;42.018;23.670;2023-08-21T07:46:41;91910.94;;;25.96;41.94
44481;BME280;30184;42.018;23.670;2023-08-21T07:49:10;91657.72;;;24.26;40.23
44481;BME280;30184;42.018;23.670;2023-08-21T07:51:40;91906.47;;;26.42;39.79
44481;BME280;30184;42.018;23.670;2023-08-21T07:54:09;91906.31;;;26.58;39.11
44481;BME280;30184;42.018;23.670;2023-08-21T07:56:38;91901.00;;;26.79;39.71
44481;BME280;30184;42.018;23.670;2023-08-21T07:59:10;91843.13;;;26.72;37.70
44481;BME280;30184;42.018;23.670;2023-08-21T08:01:39;91831.59;;;26.62;38.68
44481;BME280;30184;42.018;23.670;2023-08-21T08:04:08;91830.84;;;26.81;36.69
44481;BME280;30184;42.018;23.670;2023-08-21T08:06:38;91914.00;;;27.33;37.21
44481;BME280;30184;42.018;23.670;2023-08-21T08:09:07;91907.84;;;27.59;36.11
44481;BME280;30184;42.018;23.670;2023-08-21T08:11:37;91901.94;;;27.62;35.92
44481;BME280;30184;42.018;23.670;2023-08-21T08:14:06;91870.22;;;27.46;35.78
44481;BME280;30184;42.018;23.670;2023-08-21T08:16:36;91888.91;;;27.70;36.27
44481;BME280;30184;42.018;23.670;2023-08-21T08:19:05;91892.69;;;27.86;36.34
44481;BME280;30184;42.018;23.670;2023-08-21T08:21:35;91882.94;;;27.79;35.16
44481;BME280;30184;42.018;23.670;2023-08-21T08:24:05;91887.19;;;27.80;34.50
44481;BME280;30184;42.018;23.670;2023-08-21T08:26:34;91892.81;;;27.94;35.30
44481;BME280;30184;42.018;23.670;2023-08-21T08:29:04;91881.00;;;27.88;35.53
44481;BME280;30184;42.018;23.670;2023-08-21T08:31:33;91887.53;;;27.90;36.12
44481;BME280;30184;42.018;23.670;2023-08-21T08:34:04;91881.56;;;27.99;34.85
44481;BME280;30184;42.018;23.670;2023-08-21T08:36:34;91889.84;;;28.05;35.61
44481;BME280;30184;42.018;23.670;2023-08-21T08:39:03;91831.94;;;27.66;35.05
44481;BME280;30184;42.018;23.670;2023-08-21T08:41:38;91880.97;;;28.19;34.59
44481;BME280;30184;42.018;23.670;2023-08-21T08:44:12;91873.44;;;28.14;35.58
44481;BME280;30184;42.018;23.670;2023-08-21T08:46:43;91872.00;;;28.40;35.49
44481;BME280;30184;42.018;23.670;2023-08-21T08:49:14;91788.44;;;28.02;36.15
44481;BME280;30184;42.018;23.670;2023-08-21T08:51:44;91856.63;;;28.46;34.27
44481;BME280;30184;42.018;23.670;2023-08-21T08:54:16;91845.91;;;28.24;33.86
44481;BME280;30184;42.018;23.670;2023-08-21T08:56:46;91880.38;;;28.53;33.63
44481;BME280;30184;42.018;23.670;2023-08-21T08:59:16;91883.91;;;28.67;33.99
44481;BME280;30184;42.018;23.670;2023-08-21T09:01:46;91863.97;;;28.63;33.57
44481;BME280;30184;42.018;23.670;2023-08-21T09:04:17;91873.41;;;28.59;33.79
44481;BME280;30184;42.018;23.670;2023-08-21T09:06:50;91896.19;;;28.77;34.86
44481;BME280;30184;42.018;23.670;2023-08-21T09:09:20;91691.97;;;27.54;34.68
44481;BME280;30184;42.018;23.670;2023-08-21T09:11:50;91861.13;;;29.02;33.92
44481;BME280;30184;42.018;23.670;2023-08-21T09:14:26;91867.66;;;29.18;33.46
44481;BME280;30184;42.018;23.670;2023-08-21T09:17:00;91873.25;;;29.18;33.98
44481;BME280;30184;42.018;23.670;2023-08-21T09:19:33;91877.44;;;29.11;33.31
44481;BME280;30184;42.018;23.670;2023-08-21T09:22:11;91858.09;;;29.13;33.53
44481;BME280;30184;42.018;23.670;2023-08-21T09:25:00;91866.00;;;29.36;34.27
44481;BME280;30184;42.018;23.670;2023-08-21T09:27:33;91881.06;;;29.32;33.48
44481;BME280;30184;42.018;23.670;2023-08-21T09:30:04;91860.72;;;29.45;33.26
44481;BME280;30184;42.018;23.670;2023-08-21T09:32:52;91850.22;;;29.59;33.18
44481;BME280;30184;42.018;23.670;2023-08-21T09:35:24;91844.69;;;29.66;32.98
44481;BME280;30184;42.018;23.670;2023-08-21T09:37:53;91844.56;;;29.72;32.32
44481;BME280;30184;42.018;23.670;2023-08-21T09:40:23;91837.19;;;29.61;31.78
44481;BME280;30184;42.018;23.670;2023-08-21T09:42:52;91839.94;;;29.75;31.73
44481;BME280;30184;42.018;23.670;2023-08-21T09:45:23;91820.22;;;29.59;32.05
44481;BME280;30184;42.018;23.670;2023-08-21T09:47:52;91684.28;;;28.60;32.16
44481;BME280;30184;42.018;23.670;2023-08-21T09:50:24;91775.38;;;29.31;32.39
44481;BME280;30184;42.018;23.670;2023-08-21T09:52:56;91761.09;;;29.21;32.41
44481;BME280;30184;42.018;23.670;2023-08-21T09:55:46;91823.28;;;29.69;30.96
44481;BME280;30184;42.018;23.670;2023-08-21T09:58:17;91817.69;;;29.69;31.66
44481;BME280;30184;42.018;23.670;2023-08-21T10:00:49;91831.47;;;29.88;31.53
44481;BME280;30184;42.018;23.670;2023-08-21T10:03:20;91831.75;;;29.97;31.57
44481;BME280;30184;42.018;23.670;2023-08-21T10:05:55;91825.09;;;30.00;31.15
44481;BME280;30184;42.018;23.670;2023-08-21T10:08:25;91832.56;;;30.05;31.49
44481;BME280;30184;42.018;23.670;2023-08-21T10:10:56;91819.53;;;30.08;31.43
44481;BME280;30184;42.018;23.670;2023-08-21T10:13:32;91691.41;;;29.37;31.62
44481;BME280;30184;42.018;23.670;2023-08-21T10:16:02;91817.47;;;30.29;30.83
44481;BME280;30184;42.018;23.670;2023-08-21T10:18:34;91801.41;;;30.30;31.19
44481;BME280;30184;42.018;23.670;2023-08-21T10:21:13;91673.34;;;29.38;31.17
44481;BME280;30184;42.018;23.670;2023-08-21T10:23:46;91787.09;;;30.13;31.05
44481;BME280;30184;42.018;23.670;2023-08-21T10:26:18;91804.84;;;30.43;32.32
44481;BME280;30184;42.018;23.670;2023-08-21T10:28:50;91836.41;;;30.44;30.62
44481;BME280;30184;42.018;23.670;2023-08-21T10:31:29;91808.81;;;30.48;31.19
44481;BME280;30184;42.018;23.670;2023-08-21T10:34:01;91805.38;;;30.42;31.23
44481;BME280;30184;42.018;23.670;2023-08-21T10:39:28;91786.41;;;30.48;30.82
44481;BME280;30184;42.018;23.670;2023-08-21T10:42:01;91801.84;;;30.70;31.59
44481;BME280;30184;42.018;23.670;2023-08-21T10:44:46;91788.97;;;30.74;30.97
44481;BME280;30184;42.018;23.670;2023-08-21T10:47:20;91793.81;;;30.66;31.81
44481;BME280;30184;42.018;23.670;2023-08-21T10:49:52;91788.94;;;30.67;31.72
44481;BME280;30184;42.018;23.670;2023-08-21T10:52:24;91799.28;;;30.51;31.71
44481;BME280;30184;42.018;23.670;2023-08-21T10:54:55;91791.47;;;30.21;31.70
44481;BME280;30184;42.018;23.670;2023-08-21T10:57:26;91760.94;;;30.02;31.19
44481;BME280;30184;42.018;23.670;2023-08-21T10:59:57;91799.78;;;30.42;30.95
44481;BME280;30184;42.018;23.670;2023-08-21T11:02:28;91792.94;;;30.51;31.09
44481;BME280;30184;42.018;23.670;2023-08-21T11:04:58;91794.16;;;30.63;31.59
44481;BME280;30184;42.018;23.670;2023-08-21T11:07:29;91791.25;;;30.84;31.54
44481;BME280;30184;42.018;23.670;2023-08-21T11:09:59;91795.22;;;30.96;31.27
44481;BME280;30184;42.018;23.670;2023-08-21T11:12:28;91798.13;;;31.19;30.76
44481;BME280;30184;42.018;23.670;2023-08-21T11:14:57;91794.09;;;31.50;31.14
44481;BME280;30184;42.018;23.670;2023-08-21T11:17:27;91780.88;;;31.66;30.38
44481;BME280;30184;42.018;23.670;2023-08-21T11:19:56;91688.72;;;30.96;30.48
44481;BME280;30184;42.018;23.670;2023-08-21T11:22:32;91835.03;;;31.45;30.04
44481;BME280;30184;42.018;23.670;2023-08-21T11:25:02;91765.31;;;31.49;29.14
44481;BME280;30184;42.018;23.670;2023-08-21T11:27:32;91795.56;;;31.43;30.06
44481;BME280;30184;42.018;23.670;2023-08-21T11:30:01;91786.59;;;31.37;30.54
44481;BME280;30184;42.018;23.670;2023-08-21T11:32:31;91792.41;;;31.39;30.84
44481;BME280;30184;42.018;23.670;2023-08-21T11:35:00;91816.91;;;31.46;31.63
44481;BME280;30184;42.018;23.670;2023-08-21T11:37:32;91779.34;;;31.49;31.01
44481;BME280;30184;42.018;23.670;2023-08-21T11:40:07;91718.34;;;31.20;30.04
44481;BME280;30184;42.018;23.670;2023-08-21T11:42:37;91788.50;;;31.58;30.10
44481;BME280;30184;42.018;23.670;2023-08-21T11:45:07;91799.31;;;31.38;29.38
44481;BME280;30184;42.018;23.670;2023-08-21T11:47:39;91688.56;;;30.50;30.06
44481;BME280;30184;42.018;23.670;2023-08-21T11:50:09;91730.66;;;30.65;30.56
44481;BME280;30184;42.018;23.670;2023-08-21T11:52:42;91798.13;;;31.11;30.74
44481;BME280;30184;42.018;23.670;2023-08-21T11:55:11;91798.06;;;31.03;31.08
44481;BME280;30184;42.018;23.670;2023-08-21T11:57:48;91797.66;;;30.92;30.75
44481;BME280;30184;42.018;23.670;2023-08-21T12:00:18;91805.28;;;30.84;31.10
44481;BME280;30184;42.018;23.670;2023-08-21T12:02:57;91801.84;;;30.70;30.71
44481;BME280;30184;42.018;23.670;2023-08-21T12:05:27;91787.63;;;30.68;31.57
44481;BME280;30184;42.018;23.670;2023-08-21T12:07:58;91772.66;;;30.58;31.75
44481;BME280;30184;42.018;23.670;2023-08-21T12:10:28;91791.56;;;30.65;32.13
44481;BME280;30184;42.018;23.670;2023-08-21T12:12:58;91788.97;;;30.74;32.24
44481;BME280;30184;42.018;23.670;2023-08-21T12:15:27;91782.34;;;30.93;31.13
44481;BME280;30184;42.018;23.670;2023-08-21T12:17:57;91757.69;;;30.99;31.97
44481;BME280;30184;42.018;23.670;2023-08-21T12:20:26;91760.94;;;31.26;30.85
44481;BME280;30184;42.018;23.670;2023-08-21T12:22:55;91766.22;;;31.29;30.86
44481;BME280;30184;42.018;23.670;2023-08-21T12:25:25;91770.66;;;31.17;31.18
44481;BME280;30184;42.018;23.670;2023-08-21T12:27:55;91785.72;;;30.99;30.94
44481;BME280;30184;42.018;23.670;2023-08-21T12:30:31;91735.91;;;30.33;32.08
44481;BME280;30184;42.018;23.670;2023-08-21T12:33:00;91800.06;;;30.52;33.73
44481;BME280;30184;42.018;23.670;2023-08-21T12:35:32;91750.84;;;29.58;38.55
44481;BME280;30184;42.018;23.670;2023-08-21T12:38:10;91829.25;;;29.65;39.27
44481;BME280;30184;42.018;23.670;2023-08-21T12:40:41;91811.34;;;29.14;42.52
44481;BME280;30184;42.018;23.670;2023-08-21T12:43:11;91835.78;;;28.74;48.13
44481;BME280;30184;42.018;23.670;2023-08-21T12:45:40;91825.72;;;28.18;51.13
44481;BME280;30184;42.018;23.670;2023-08-21T12:48:09;91837.50;;;27.66;52.94
44481;BME280;30184;42.018;23.670;2023-08-21T12:50:39;91845.34;;;27.48;52.82
44481;BME280;30184;42.018;23.670;2023-08-21T12:53:08;91845.66;;;26.94;55.09
44481;BME280;30184;42.018;23.670;2023-08-21T12:55:37;91845.75;;;26.64;54.14
44481;BME280;30184;42.018;23.670;2023-08-21T12:58:08;91807.38;;;26.38;56.43
44481;BME280;30184;42.018;23.670;2023-08-21T13:00:37;91858.09;;;26.69;55.58
44481;BME280;30184;42.018;23.670;2023-08-21T13:03:07;91854.81;;;26.46;56.70
44481;BME280;30184;42.018;23.670;2023-08-21T13:05:36;91865.41;;;26.23;59.28
44481;BME280;30184;42.018;23.670;2023-08-21T13:08:06;91796.00;;;25.63;60.48
44481;BME280;30184;42.018;23.670;2023-08-21T13:10:35;91869.47;;;25.98;59.29